sensor_id;sensor_type;location;lat;lon;timestamp;P1;durP1;ratioP1;P2;durP2;ratioP2
24857;SDS011;12935;50.782;6.074;2023-03-11T00:02:12;17.17;;;2.43;;
24857;SDS011;12935;50.782;6.074;2023-03-11T00:04:38;9.23;;;1.50;;
24857;SDS011;12935;50.782;6.074;2023-03-11T00:07:07;11.73;;;1.80;;
24857;SDS011;12935;50.782;6.074;2023-03-11T00:09:34;23.50;;;3.35;;
24857;SDS011;12935;50.782;6.074;2023-03-11T00:12:00;17.07;;;2.80;;
24857;SDS011;12935;50.782;6.074;2023-03-11T00:14:29;14.93;;;2.08;;
24857;SDS011;12935;50.782;6.074;2023-03-11T00:16:54;39.03;;;4.10;;
24857;SDS011;12935;50.782;6.074;2023-03-11T00:19:19;14.80;;;2.23;;
24857;SDS011;12935;50.782;6.074;2023-03-11T00:21:45;11.77;;;1.87;;
24857;SDS011;12935;50.782;6.074;2023-03-11T00:24:10;23.63;;;3.50;;
24857;SDS011;12935;50.782;6.074;2023-03-11T00:26:35;23.20;;;3.53;;
24857;SDS011;12935;50.782;6.074;2023-03-11T00:29:01;33.47;;;4.27;;
24857;SDS011;12935;50.782;6.074;2023-03-11T00:31:26;22.60;;;2.60;;
24857;SDS011;12935;50.782;6.074;2023-03-11T00:33:52;12.00;;;1.70;;
24857;SDS011;12935;50.782;6.074;2023-03-11T00:36:23;11.65;;;2.20;;
24857;SDS011;12935;50.782;6.074;2023-03-11T00:38:55;18.77;;;4.35;;
24857;SDS011;12935;50.782;6.074;2023-03-11T00:41:21;11.25;;;1.63;;
24857;SDS011;12935;50.782;6.074;2023-03-11T00:43:47;15.00;;;2.23;;
24857;SDS011;12935;50.782;6.074;2023-03-11T00:46:12;15.03;;;2.20;;
24857;SDS011;12935;50.782;6.074;2023-03-11T00:48:38;14.47;;;2.23;;
24857;SDS011;12935;50.782;6.074;2023-03-11T00:51:05;18.20;;;2.60;;
24857;SDS011;12935;50.782;6.074;2023-03-11T00:53:32;18.83;;;2.72;;
24857;SDS011;12935;50.782;6.074;2023-03-11T00:55:58;14.57;;;2.07;;
24857;SDS011;12935;50.782;6.074;2023-03-11T00:58:24;13.63;;;2.10;;
24857;SDS011;12935;50.782;6.074;2023-03-11T01:00:52;20.00;;;2.67;;
24857;SDS011;12935;50.782;6.074;2023-03-11T01:03:18;32.13;;;2.40;;
24857;SDS011;12935;50.782;6.074;2023-03-11T01:05:43;19.00;;;2.80;;
24857;SDS011;12935;50.782;6.074;2023-03-11T01:08:08;13.97;;;1.90;;
24857;SDS011;12935;50.782;6.074;2023-03-11T01:10:33;13.60;;;2.03;;
24857;SDS011;12935;50.782;6.074;2023-03-11T01:12:59;12.10;;;2.03;;
24857;SDS011;12935;50.782;6.074;2023-03-11T01:15:29;8.03;;;1.33;;
24857;SDS011;12935;50.782;6.074;2023-03-11T01:18:00;11.53;;;2.07;;
24857;SDS011;12935;50.782;6.074;2023-03-11T01:20:26;12.25;;;2.03;;
24857;SDS011;12935;50.782;6.074;2023-03-11T01:22:53;14.45;;;2.13;;
24857;SDS011;12935;50.782;6.074;2023-03-11T01:25:19;15.90;;;2.20;;
24857;SDS011;12935;50.782;6.074;2023-03-11T01:27:47;18.17;;;2.58;;
24857;SDS011;12935;50.782;6.074;2023-03-11T01:30:14;16.03;;;2.07;;
24857;SDS011;12935;50.782;6.074;2023-03-11T01:32:46;13.45;;;2.08;;
24857;SDS011;12935;50.782;6.074;2023-03-11T01:35:12;21.87;;;3.10;;
24857;SDS011;12935;50.782;6.074;2023-03-11T01:37:39;12.30;;;1.75;;
24857;SDS011;12935;50.782;6.074;2023-03-11T01:40:06;16.43;;;2.30;;
24857;SDS011;12935;50.782;6.074;2023-03-11T01:42:37;11.70;;;1.70;;
24857;SDS011;12935;50.782;6.074;2023-03-11T01:45:11;12.20;;;1.87;;
24857;SDS011;12935;50.782;6.074;2023-03-11T01:47:54;11.95;;;1.83;;
24857;SDS011;12935;50.782;6.074;2023-03-11T01:50:19;12.40;;;1.90;;
24857;SDS011;12935;50.782;6.074;2023-03-11T01:52:46;13.93;;;2.17;;
24857;SDS011;12935;50.782;6.074;2023-03-11T01:55:12;10.02;;;1.73;;
24857;SDS011;12935;50.782;6.074;2023-03-11T01:57:41;12.07;;;1.65;;
24857;SDS011;12935;50.782;6.074;2023-03-11T02:00:09;10.40;;;1.60;;
24857;SDS011;12935;50.782;6.074;2023-03-11T02:02:41;13.82;;;1.98;;
24857;SDS011;12935;50.782;6.074;2023-03-11T02:05:12;15.75;;;2.25;;
24857;SDS011;12935;50.782;6.074;2023-03-11T02:07:39;22.98;;;2.97;;
24857;SDS011;12935;50.782;6.074;2023-03-11T02:10:05;16.27;;;2.13;;
24857;SDS011;12935;50.782;6.074;2023-03-11T02:12:32;14.57;;;2.05;;
24857;SDS011;12935;50.782;6.074;2023-03-11T02:15:00;15.85;;;2.50;;
24857;SDS011;12935;50.782;6.074;2023-03-11T02:17:26;20.75;;;2.88;;
24857;SDS011;12935;50.782;6.074;2023-03-11T02:22:23;14.85;;;2.15;;
24857;SDS011;12935;50.782;6.074;2023-03-11T02:25:26;17.73;;;2.50;;
24857;SDS011;12935;50.782;6.074;2023-03-11T02:27:48;22.58;;;3.70;;
24857;SDS011;12935;50.782;6.074;2023-03-11T02:30:15;11.77;;;2.42;;
24857;SDS011;12935;50.782;6.074;2023-03-11T02:32:41;15.15;;;3.20;;
24857;SDS011;12935;50.782;6.074;2023-03-11T02:35:11;23.27;;;3.10;;
24857;SDS011;12935;50.782;6.074;2023-03-11T02:37:36;14.00;;;2.07;;
24857;SDS011;12935;50.782;6.074;2023-03-11T02:42:48;13.27;;;1.98;;
24857;SDS011;12935;50.782;6.074;2023-03-11T02:45:17;11.45;;;1.73;;
24857;SDS011;12935;50.782;6.074;2023-03-11T02:47:45;20.17;;;7.72;;
24857;SDS011;12935;50.782;6.074;2023-03-11T02:50:12;13.43;;;1.80;;
24857;SDS011;12935;50.782;6.074;2023-03-11T02:52:40;15.43;;;2.25;;
24857;SDS011;12935;50.782;6.074;2023-03-11T02:55:05;15.40;;;2.13;;
24857;SDS011;12935;50.782;6.074;2023-03-11T02:57:31;15.88;;;2.38;;
24857;SDS011;12935;50.782;6.074;2023-03-11T02:59:57;18.33;;;2.50;;
24857;SDS011;12935;50.782;6.074;2023-03-11T03:02:24;11.00;;;1.60;;
24857;SDS011;12935;50.782;6.074;2023-03-11T03:04:49;14.87;;;2.30;;
24857;SDS011;12935;50.782;6.074;2023-03-11T03:07:14;19.27;;;2.57;;
24857;SDS011;12935;50.782;6.074;2023-03-11T03:09:39;19.73;;;2.83;;
24857;SDS011;12935;50.782;6.074;2023-03-11T03:12:05;24.10;;;3.30;;
24857;SDS011;12935;50.782;6.074;2023-03-11T03:14:30;14.80;;;2.03;;
24857;SDS011;12935;50.782;6.074;2023-03-11T03:16:56;24.27;;;3.90;;
24857;SDS011;12935;50.782;6.074;2023-03-11T03:19:21;34.20;;;4.30;;
24857;SDS011;12935;50.782;6.074;2023-03-11T03:21:46;16.80;;;3.50;;
24857;SDS011;12935;50.782;6.074;2023-03-11T03:24:12;18.93;;;2.53;;
24857;SDS011;12935;50.782;6.074;2023-03-11T03:26:37;28.97;;;4.33;;
24857;SDS011;12935;50.782;6.074;2023-03-11T03:29:03;11.63;;;1.73;;
24857;SDS011;12935;50.782;6.074;2023-03-11T03:31:30;12.18;;;1.92;;
24857;SDS011;12935;50.782;6.074;2023-03-11T03:33:56;18.50;;;3.80;;
24857;SDS011;12935;50.782;6.074;2023-03-11T03:36:22;11.90;;;1.73;;
24857;SDS011;12935;50.782;6.074;2023-03-11T03:38:52;14.67;;;2.03;;
24857;SDS011;12935;50.782;6.074;2023-03-11T03:41:21;17.10;;;2.35;;
24857;SDS011;12935;50.782;6.074;2023-03-11T03:43:47;14.75;;;4.22;;
24857;SDS011;12935;50.782;6.074;2023-03-11T03:46:12;22.83;;;3.87;;
24857;SDS011;12935;50.782;6.074;2023-03-11T03:48:38;19.10;;;2.60;;
24857;SDS011;12935;50.782;6.074;2023-03-11T03:51:03;19.27;;;2.50;;
24857;SDS011;12935;50.782;6.074;2023-03-11T03:53:30;12.30;;;2.08;;
24857;SDS011;12935;50.782;6.074;2023-03-11T03:56:00;12.10;;;1.80;;
24857;SDS011;12935;50.782;6.074;2023-03-11T03:58:38;21.70;;;2.80;;
24857;SDS011;12935;50.782;6.074;2023-03-11T04:01:04;18.40;;;2.53;;
24857;SDS011;12935;50.782;6.074;2023-03-11T04:03:30;17.05;;;2.40;;
24857;SDS011;12935;50.782;6.074;2023-03-11T04:06:10;20.42;;;3.50;;
24857;SDS011;12935;50.782;6.074;2023-03-11T04:08:42;13.40;;;2.40;;
24857;SDS011;12935;50.782;6.074;2023-03-11T04:11:07;12.40;;;1.93;;
24857;SDS011;12935;50.782;6.074;2023-03-11T04:13:33;13.30;;;2.00;;
24857;SDS011;12935;50.782;6.074;2023-03-11T04:15:58;19.10;;;2.60;;
24857;SDS011;12935;50.782;6.074;2023-03-11T04:18:23;16.97;;;2.23;;
24857;SDS011;12935;50.782;6.074;2023-03-11T04:20:49;18.83;;;3.40;;
24857;SDS011;12935;50.782;6.074;2023-03-11T04:23:14;10.63;;;1.60;;
24857;SDS011;12935;50.782;6.074;2023-03-11T04:25:40;19.10;;;2.60;;
24857;SDS011;12935;50.782;6.074;2023-03-11T04:28:05;15.97;;;2.27;;
24857;SDS011;12935;50.782;6.074;2023-03-11T04:30:31;17.70;;;2.33;;
24857;SDS011;12935;50.782;6.074;2023-03-11T04:32:56;20.27;;;2.80;;
24857;SDS011;12935;50.782;6.074;2023-03-11T04:35:21;14.37;;;2.00;;
24857;SDS011;12935;50.782;6.074;2023-03-11T04:37:47;14.40;;;2.10;;
24857;SDS011;12935;50.782;6.074;2023-03-11T04:40:13;13.40;;;1.93;;
24857;SDS011;12935;50.782;6.074;2023-03-11T04:42:39;13.57;;;1.88;;
24857;SDS011;12935;50.782;6.074;2023-03-11T04:45:05;12.50;;;1.80;;
24857;SDS011;12935;50.782;6.074;2023-03-11T04:47:32;19.50;;;2.75;;
24857;SDS011;12935;50.782;6.074;2023-03-11T04:49:58;17.23;;;2.40;;
24857;SDS011;12935;50.782;6.074;2023-03-11T04:52:23;17.17;;;2.63;;
24857;SDS011;12935;50.782;6.074;2023-03-11T04:54:49;20.50;;;2.88;;
24857;SDS011;12935;50.782;6.074;2023-03-11T04:57:15;14.77;;;2.07;;
24857;SDS011;12935;50.782;6.074;2023-03-11T04:59:41;9.63;;;1.57;;
24857;SDS011;12935;50.782;6.074;2023-03-11T05:02:09;14.60;;;2.20;;
24857;SDS011;12935;50.782;6.074;2023-03-11T05:04:35;16.90;;;2.37;;
24857;SDS011;12935;50.782;6.074;2023-03-11T05:07:00;17.30;;;2.57;;
24857;SDS011;12935;50.782;6.074;2023-03-11T05:09:25;17.20;;;2.63;;
24857;SDS011;12935;50.782;6.074;2023-03-11T05:11:51;24.83;;;3.40;;
24857;SDS011;12935;50.782;6.074;2023-03-11T05:14:19;18.53;;;3.63;;
24857;SDS011;12935;50.782;6.074;2023-03-11T05:16:45;12.48;;;1.85;;
24857;SDS011;12935;50.782;6.074;2023-03-11T05:19:10;15.47;;;2.13;;
24857;SDS011;12935;50.782;6.074;2023-03-11T05:21:54;16.83;;;2.33;;
24857;SDS011;12935;50.782;6.074;2023-03-11T05:24:19;14.77;;;2.23;;
24857;SDS011;12935;50.782;6.074;2023-03-11T05:26:44;28.47;;;3.80;;
24857;SDS011;12935;50.782;6.074;2023-03-11T05:29:10;14.10;;;2.20;;
24857;SDS011;12935;50.782;6.074;2023-03-11T05:31:35;24.60;;;4.90;;
24857;SDS011;12935;50.782;6.074;2023-03-11T05:34:01;22.23;;;2.93;;
24857;SDS011;12935;50.782;6.074;2023-03-11T05:36:26;27.63;;;4.00;;
24857;SDS011;12935;50.782;6.074;2023-03-11T05:38:51;12.63;;;1.73;;
24857;SDS011;12935;50.782;6.074;2023-03-11T05:41:17;11.33;;;1.77;;
24857;SDS011;12935;50.782;6.074;2023-03-11T05:43:43;17.63;;;2.40;;
24857;SDS011;12935;50.782;6.074;2023-03-11T05:46:09;22.10;;;2.97;;
24857;SDS011;12935;50.782;6.074;2023-03-11T05:48:35;12.95;;;1.80;;
24857;SDS011;12935;50.782;6.074;2023-03-11T05:51:05;16.70;;;2.97;;
24857;SDS011;12935;50.782;6.074;2023-03-11T05:53:34;12.38;;;1.85;;
24857;SDS011;12935;50.782;6.074;2023-03-11T05:56:03;13.20;;;1.90;;
24857;SDS011;12935;50.782;6.074;2023-03-11T05:58:30;25.17;;;4.20;;
24857;SDS011;12935;50.782;6.074;2023-03-11T06:00:56;11.52;;;1.70;;
24857;SDS011;12935;50.782;6.074;2023-03-11T06:03:24;11.52;;;1.80;;
24857;SDS011;12935;50.782;6.074;2023-03-11T06:05:50;11.15;;;1.67;;
24857;SDS011;12935;50.782;6.074;2023-03-11T06:08:17;10.10;;;1.67;;
24857;SDS011;12935;50.782;6.074;2023-03-11T06:10:43;12.57;;;2.58;;
24857;SDS011;12935;50.782;6.074;2023-03-11T06:13:09;13.03;;;2.00;;
24857;SDS011;12935;50.782;6.074;2023-03-11T06:15:35;11.87;;;1.80;;
24857;SDS011;12935;50.782;6.074;2023-03-11T06:18:02;13.88;;;2.10;;
24857;SDS011;12935;50.782;6.074;2023-03-11T06:20:28;16.70;;;2.42;;
24857;SDS011;12935;50.782;6.074;2023-03-11T06:22:53;17.97;;;2.37;;
24857;SDS011;12935;50.782;6.074;2023-03-11T06:25:19;13.73;;;2.50;;
24857;SDS011;12935;50.782;6.074;2023-03-11T06:27:47;22.07;;;3.00;;
24857;SDS011;12935;50.782;6.074;2023-03-11T06:30:14;14.18;;;2.08;;
24857;SDS011;12935;50.782;6.074;2023-03-11T06:32:42;15.77;;;2.30;;
24857;SDS011;12935;50.782;6.074;2023-03-11T06:35:08;20.77;;;3.97;;
24857;SDS011;12935;50.782;6.074;2023-03-11T06:37:34;15.83;;;2.20;;
24857;SDS011;12935;50.782;6.074;2023-03-11T06:40:01;10.00;;;1.83;;
24857;SDS011;12935;50.782;6.074;2023-03-11T06:42:29;11.55;;;2.20;;
24857;SDS011;12935;50.782;6.074;2023-03-11T06:44:54;14.10;;;2.07;;
24857;SDS011;12935;50.782;6.074;2023-03-11T06:47:19;13.50;;;2.23;;
24857;SDS011;12935;50.782;6.074;2023-03-11T06:49:45;15.40;;;2.10;;
24857;SDS011;12935;50.782;6.074;2023-03-11T06:52:10;19.10;;;3.00;;
24857;SDS011;12935;50.782;6.074;2023-03-11T06:54:35;10.93;;;1.67;;
24857;SDS011;12935;50.782;6.074;2023-03-11T06:57:01;10.73;;;1.83;;
24857;SDS011;12935;50.782;6.074;2023-03-11T06:59:26;35.37;;;5.03;;
24857;SDS011;12935;50.782;6.074;2023-03-11T07:01:52;19.10;;;2.67;;
24857;SDS011;12935;50.782;6.074;2023-03-11T07:04:18;9.80;;;1.58;;
24857;SDS011;12935;50.782;6.074;2023-03-11T07:06:44;9.40;;;1.70;;
24857;SDS011;12935;50.782;6.074;2023-03-11T07:09:10;15.00;;;2.80;;
24857;SDS011;12935;50.782;6.074;2023-03-11T07:11:37;22.00;;;3.58;;
24857;SDS011;12935;50.782;6.074;2023-03-11T07:14:03;6.13;;;1.17;;
24857;SDS011;12935;50.782;6.074;2023-03-11T07:16:30;9.20;;;1.60;;
24857;SDS011;12935;50.782;6.074;2023-03-11T07:18:56;13.67;;;2.07;;
24857;SDS011;12935;50.782;6.074;2023-03-11T07:21:25;10.43;;;1.75;;
24857;SDS011;12935;50.782;6.074;2023-03-11T07:23:56;17.10;;;2.50;;
24857;SDS011;12935;50.782;6.074;2023-03-11T07:26:24;16.52;;;3.60;;
24857;SDS011;12935;50.782;6.074;2023-03-11T07:28:50;18.50;;;2.70;;
24857;SDS011;12935;50.782;6.074;2023-03-11T07:31:18;21.30;;;3.67;;
24857;SDS011;12935;50.782;6.074;2023-03-11T07:33:45;12.80;;;1.98;;
24857;SDS011;12935;50.782;6.074;2023-03-11T07:36:12;14.53;;;3.10;;
24857;SDS011;12935;50.782;6.074;2023-03-11T07:38:40;12.60;;;2.13;;
24857;SDS011;12935;50.782;6.074;2023-03-11T07:41:06;11.47;;;1.87;;
24857;SDS011;12935;50.782;6.074;2023-03-11T07:43:33;8.88;;;2.28;;
24857;SDS011;12935;50.782;6.074;2023-03-11T07:46:07;11.05;;;1.85;;
24857;SDS011;12935;50.782;6.074;2023-03-11T07:48:33;8.65;;;1.50;;
24857;SDS011;12935;50.782;6.074;2023-03-11T07:51:09;20.67;;;3.30;;
24857;SDS011;12935;50.782;6.074;2023-03-11T07:53:37;13.23;;;2.25;;
24857;SDS011;12935;50.782;6.074;2023-03-11T07:56:05;15.18;;;2.90;;
24857;SDS011;12935;50.782;6.074;2023-03-11T07:58:31;14.80;;;2.88;;
24857;SDS011;12935;50.782;6.074;2023-03-11T08:01:08;13.82;;;2.33;;
24857;SDS011;12935;50.782;6.074;2023-03-11T08:03:36;19.30;;;2.97;;
24857;SDS011;12935;50.782;6.074;2023-03-11T08:06:02;18.05;;;3.42;;
24857;SDS011;12935;50.782;6.074;2023-03-11T08:08:35;15.57;;;2.30;;
24857;SDS011;12935;50.782;6.074;2023-03-11T08:11:02;16.07;;;2.50;;
24857;SDS011;12935;50.782;6.074;2023-03-11T08:13:28;15.40;;;2.25;;
24857;SDS011;12935;50.782;6.074;2023-03-11T08:15:54;9.73;;;1.70;;
24857;SDS011;12935;50.782;6.074;2023-03-11T08:18:19;14.07;;;2.30;;
24857;SDS011;12935;50.782;6.074;2023-03-11T08:20:44;14.13;;;2.27;;
24857;SDS011;12935;50.782;6.074;2023-03-11T08:23:10;19.30;;;2.80;;
24857;SDS011;12935;50.782;6.074;2023-03-11T08:25:39;16.83;;;2.37;;
24857;SDS011;12935;50.782;6.074;2023-03-11T08:28:05;18.17;;;2.55;;
24857;SDS011;12935;50.782;6.074;2023-03-11T08:30:31;18.55;;;2.70;;
24857;SDS011;12935;50.782;6.074;2023-03-11T08:33:03;22.20;;;3.27;;
24857;SDS011;12935;50.782;6.074;2023-03-11T08:35:29;26.67;;;3.63;;
24857;SDS011;12935;50.782;6.074;2023-03-11T08:37:55;17.17;;;2.55;;
24857;SDS011;12935;50.782;6.074;2023-03-11T08:40:20;15.87;;;4.27;;
24857;SDS011;12935;50.782;6.074;2023-03-11T08:42:46;22.70;;;3.37;;
24857;SDS011;12935;50.782;6.074;2023-03-11T08:45:12;21.48;;;3.08;;
24857;SDS011;12935;50.782;6.074;2023-03-11T08:47:37;13.97;;;2.33;;
24857;SDS011;12935;50.782;6.074;2023-03-11T08:50:04;19.40;;;2.67;;
24857;SDS011;12935;50.782;6.074;2023-03-11T08:52:31;13.20;;;2.20;;
24857;SDS011;12935;50.782;6.074;2023-03-11T08:54:57;15.30;;;2.50;;
24857;SDS011;12935;50.782;6.074;2023-03-11T08:57:22;15.03;;;2.30;;
24857;SDS011;12935;50.782;6.074;2023-03-11T08:59:47;21.87;;;3.30;;
24857;SDS011;12935;50.782;6.074;2023-03-11T09:02:13;18.17;;;2.93;;
24857;SDS011;12935;50.782;6.074;2023-03-11T09:04:38;15.73;;;2.53;;
24857;SDS011;12935;50.782;6.074;2023-03-11T09:07:03;20.20;;;3.10;;
24857;SDS011;12935;50.782;6.074;2023-03-11T09:09:29;30.60;;;4.47;;
24857;SDS011;12935;50.782;6.074;2023-03-11T09:11:54;15.83;;;2.57;;
24857;SDS011;12935;50.782;6.074;2023-03-11T09:14:20;22.97;;;3.43;;
24857;SDS011;12935;50.782;6.074;2023-03-11T09:16:45;22.43;;;4.00;;
24857;SDS011;12935;50.782;6.074;2023-03-11T09:19:10;18.10;;;2.80;;
24857;SDS011;12935;50.782;6.074;2023-03-11T09:21:36;25.60;;;3.53;;
24857;SDS011;12935;50.782;6.074;2023-03-11T09:24:02;14.77;;;2.57;;
24857;SDS011;12935;50.782;6.074;2023-03-11T09:26:28;17.38;;;2.70;;
24857;SDS011;12935;50.782;6.074;2023-03-11T09:28:57;19.17;;;3.15;;
24857;SDS011;12935;50.782;6.074;2023-03-11T09:31:22;62.30;;;4.30;;
24857;SDS011;12935;50.782;6.074;2023-03-11T09:33:48;21.67;;;3.17;;
24857;SDS011;12935;50.782;6.074;2023-03-11T09:36:15;22.33;;;3.75;;
24857;SDS011;12935;50.782;6.074;2023-03-11T09:38:41;15.98;;;2.80;;
24857;SDS011;12935;50.782;6.074;2023-03-11T09:43:58;11.40;;;2.22;;
24857;SDS011;12935;50.782;6.074;2023-03-11T09:46:45;18.58;;;3.00;;
24857;SDS011;12935;50.782;6.074;2023-03-11T09:57:55;18.42;;;3.15;;
24857;SDS011;12935;50.782;6.074;2023-03-11T10:00:24;22.90;;;3.65;;
24857;SDS011;12935;50.782;6.074;2023-03-11T10:02:49;17.53;;;3.30;;
24857;SDS011;12935;50.782;6.074;2023-03-11T10:05:25;15.33;;;6.30;;
24857;SDS011;12935;50.782;6.074;2023-03-11T10:07:58;14.40;;;2.90;;
24857;SDS011;12935;50.782;6.074;2023-03-11T10:10:40;16.42;;;3.25;;
24857;SDS011;12935;50.782;6.074;2023-03-11T10:13:23;10.38;;;2.70;;
24857;SDS011;12935;50.782;6.074;2023-03-11T10:16:04;14.30;;;3.17;;
24857;SDS011;12935;50.782;6.074;2023-03-11T10:21:47;10.15;;;2.63;;
24857;SDS011;12935;50.782;6.074;2023-03-11T10:24:37;15.68;;;3.40;;
24857;SDS011;12935;50.782;6.074;2023-03-11T10:27:14;11.95;;;2.95;;
24857;SDS011;12935;50.782;6.074;2023-03-11T10:35:33;18.70;;;3.83;;
24857;SDS011;12935;50.782;6.074;2023-03-11T10:41:05;18.05;;;3.60;;
24857;SDS011;12935;50.782;6.074;2023-03-11T10:43:45;16.33;;;3.63;;
24857;SDS011;12935;50.782;6.074;2023-03-11T10:46:23;24.88;;;4.22;;
24857;SDS011;12935;50.782;6.074;2023-03-11T10:48:49;13.65;;;3.47;;
24857;SDS011;12935;50.782;6.074;2023-03-11T10:51:15;13.97;;;3.10;;
24857;SDS011;12935;50.782;6.074;2023-03-11T10:53:56;12.20;;;2.60;;
24857;SDS011;12935;50.782;6.074;2023-03-11T10:56:25;15.40;;;3.45;;
24857;SDS011;12935;50.782;6.074;2023-03-11T10:58:54;38.63;;;3.30;;
24857;SDS011;12935;50.782;6.074;2023-03-11T11:01:20;13.43;;;3.08;;
24857;SDS011;12935;50.782;6.074;2023-03-11T11:03:47;12.45;;;2.95;;
24857;SDS011;12935;50.782;6.074;2023-03-11T11:06:28;19.70;;;3.75;;
24857;SDS011;12935;50.782;6.074;2023-03-11T11:12:05;17.88;;;3.80;;
24857;SDS011;12935;50.782;6.074;2023-03-11T11:14:41;23.73;;;4.45;;
24857;SDS011;12935;50.782;6.074;2023-03-11T11:17:18;17.23;;;3.83;;
24857;SDS011;12935;50.782;6.074;2023-03-11T11:19:48;28.48;;;4.88;;
24857;SDS011;12935;50.782;6.074;2023-03-11T11:22:15;16.65;;;3.47;;
24857;SDS011;12935;50.782;6.074;2023-03-11T11:24:43;22.45;;;3.90;;
24857;SDS011;12935;50.782;6.074;2023-03-11T11:29:35;27.70;;;4.77;;
24857;SDS011;12935;50.782;6.074;2023-03-11T11:34:37;19.40;;;3.97;;
24857;SDS011;12935;50.782;6.074;2023-03-11T11:37:04;13.50;;;3.20;;
24857;SDS011;12935;50.782;6.074;2023-03-11T11:42:43;15.88;;;3.70;;
24857;SDS011;12935;50.782;6.074;2023-03-11T11:45:55;20.10;;;3.67;;
24857;SDS011;12935;50.782;6.074;2023-03-11T11:48:13;17.33;;;3.88;;
24857;SDS011;12935;50.782;6.074;2023-03-11T11:50:44;25.45;;;4.38;;
24857;SDS011;12935;50.782;6.074;2023-03-11T11:53:36;25.98;;;4.72;;
24857;SDS011;12935;50.782;6.074;2023-03-11T11:56:08;24.77;;;4.93;;
24857;SDS011;12935;50.782;6.074;2023-03-11T11:58:33;15.23;;;3.53;;
24857;SDS011;12935;50.782;6.074;2023-03-11T12:09:11;28.83;;;4.78;;
24857;SDS011;12935;50.782;6.074;2023-03-11T12:27:35;23.05;;;4.70;;
24857;SDS011;12935;50.782;6.074;2023-03-11T12:30:13;25.65;;;4.60;;
24857;SDS011;12935;50.782;6.074;2023-03-11T12:32:45;20.35;;;3.90;;
24857;SDS011;12935;50.782;6.074;2023-03-11T12:35:33;21.77;;;4.45;;
24857;SDS011;12935;50.782;6.074;2023-03-11T12:43:24;20.60;;;4.22;;
24857;SDS011;12935;50.782;6.074;2023-03-11T12:45:57;23.00;;;4.18;;
24857;SDS011;12935;50.782;6.074;2023-03-11T12:50:58;24.17;;;4.80;;
24857;SDS011;12935;50.782;6.074;2023-03-11T12:53:40;20.77;;;4.57;;
24857;SDS011;12935;50.782;6.074;2023-03-11T13:02:12;16.73;;;5.05;;
24857;SDS011;12935;50.782;6.074;2023-03-11T13:10:34;25.20;;;6.88;;
24857;SDS011;12935;50.782;6.074;2023-03-11T13:15:48;23.98;;;6.93;;
24857;SDS011;12935;50.782;6.074;2023-03-11T13:18:21;22.88;;;7.13;;
24857;SDS011;12935;50.782;6.074;2023-03-11T13:20:49;18.55;;;7.40;;
24857;SDS011;12935;50.782;6.074;2023-03-11T13:23:19;17.40;;;7.77;;
24857;SDS011;12935;50.782;6.074;2023-03-11T13:42:02;16.57;;;7.93;;
24857;SDS011;12935;50.782;6.074;2023-03-11T13:44:38;12.50;;;7.50;;
24857;SDS011;12935;50.782;6.074;2023-03-11T13:47:06;16.87;;;10.47;;
24857;SDS011;12935;50.782;6.074;2023-03-11T13:55:14;21.10;;;13.27;;
24857;SDS011;12935;50.782;6.074;2023-03-11T13:57:51;24.67;;;13.67;;
24857;SDS011;12935;50.782;6.074;2023-03-11T14:00:24;20.57;;;14.50;;
24857;SDS011;12935;50.782;6.074;2023-03-11T14:02:53;21.90;;;15.40;;
24857;SDS011;12935;50.782;6.074;2023-03-11T14:05:31;24.30;;;17.20;;
24857;SDS011;12935;50.782;6.074;2023-03-11T14:13:23;18.97;;;17.10;;
24857;SDS011;12935;50.782;6.074;2023-03-11T14:15:53;20.37;;;17.13;;
24857;SDS011;12935;50.782;6.074;2023-03-11T14:18:26;20.20;;;14.53;;
24857;SDS011;12935;50.782;6.074;2023-03-11T14:20:54;18.10;;;14.40;;
24857;SDS011;12935;50.782;6.074;2023-03-11T14:23:27;21.53;;;15.10;;
24857;SDS011;12935;50.782;6.074;2023-03-11T14:26:08;17.30;;;15.17;;
24857;SDS011;12935;50.782;6.074;2023-03-11T14:28:39;19.57;;;14.47;;
24857;SDS011;12935;50.782;6.074;2023-03-11T14:31:18;22.30;;;15.00;;
24857;SDS011;12935;50.782;6.074;2023-03-11T14:33:53;17.53;;;15.83;;
24857;SDS011;12935;50.782;6.074;2023-03-11T14:36:27;18.63;;;15.70;;
24857;SDS011;12935;50.782;6.074;2023-03-11T14:38:54;17.07;;;15.27;;
24857;SDS011;12935;50.782;6.074;2023-03-11T14:41:19;15.50;;;14.00;;
24857;SDS011;12935;50.782;6.074;2023-03-11T14:43:46;17.67;;;15.33;;
24857;SDS011;12935;50.782;6.074;2023-03-11T14:46:21;18.53;;;15.77;;
24857;SDS011;12935;50.782;6.074;2023-03-11T14:48:52;25.87;;;17.27;;
24857;SDS011;12935;50.782;6.074;2023-03-11T14:51:22;30.13;;;18.27;;
24857;SDS011;12935;50.782;6.074;2023-03-11T14:54:07;26.93;;;16.73;;
24857;SDS011;12935;50.782;6.074;2023-03-11T14:56:39;35.13;;;18.13;;
24857;SDS011;12935;50.782;6.074;2023-03-11T14:59:15;29.10;;;15.77;;
24857;SDS011;12935;50.782;6.074;2023-03-11T15:01:56;26.93;;;16.63;;
24857;SDS011;12935;50.782;6.074;2023-03-11T15:04:34;29.37;;;16.57;;
24857;SDS011;12935;50.782;6.074;2023-03-11T15:07:03;22.47;;;15.57;;
24857;SDS011;12935;50.782;6.074;2023-03-11T15:09:29;26.67;;;15.67;;
24857;SDS011;12935;50.782;6.074;2023-03-11T15:11:56;20.07;;;14.83;;
24857;SDS011;12935;50.782;6.074;2023-03-11T15:14:24;23.87;;;14.17;;
24857;SDS011;12935;50.782;6.074;2023-03-11T15:17:14;22.07;;;14.10;;
24857;SDS011;12935;50.782;6.074;2023-03-11T15:19:52;26.30;;;12.87;;
24857;SDS011;12935;50.782;6.074;2023-03-11T15:24:47;23.47;;;9.50;;
24857;SDS011;12935;50.782;6.074;2023-03-11T15:27:22;22.25;;;9.23;;
24857;SDS011;12935;50.782;6.074;2023-03-11T15:29:53;19.05;;;7.15;;
24857;SDS011;12935;50.782;6.074;2023-03-11T15:32:23;20.38;;;6.70;;
24857;SDS011;12935;50.782;6.074;2023-03-11T15:34:58;14.05;;;5.38;;
24857;SDS011;12935;50.782;6.074;2023-03-11T15:37:25;14.15;;;5.07;;
24857;SDS011;12935;50.782;6.074;2023-03-11T15:39:51;20.97;;;5.80;;
24857;SDS011;12935;50.782;6.074;2023-03-11T15:42:26;11.23;;;4.30;;
24857;SDS011;12935;50.782;6.074;2023-03-11T15:45:01;21.38;;;5.55;;
24857;SDS011;12935;50.782;6.074;2023-03-11T15:47:45;49.53;;;5.72;;
24857;SDS011;12935;50.782;6.074;2023-03-11T15:50:13;16.77;;;4.13;;
24857;SDS011;12935;50.782;6.074;2023-03-11T15:52:40;15.75;;;3.83;;
24857;SDS011;12935;50.782;6.074;2023-03-11T15:55:06;21.27;;;4.33;;
24857;SDS011;12935;50.782;6.074;2023-03-11T15:57:32;44.55;;;6.00;;
24857;SDS011;12935;50.782;6.074;2023-03-11T16:00:00;19.83;;;4.53;;
24857;SDS011;12935;50.782;6.074;2023-03-11T16:02:26;27.85;;;5.10;;
24857;SDS011;12935;50.782;6.074;2023-03-11T16:04:54;25.98;;;4.30;;
24857;SDS011;12935;50.782;6.074;2023-03-11T16:07:20;21.30;;;4.37;;
24857;SDS011;12935;50.782;6.074;2023-03-11T16:09:45;22.90;;;3.90;;
24857;SDS011;12935;50.782;6.074;2023-03-11T16:12:15;25.97;;;4.27;;
24857;SDS011;12935;50.782;6.074;2023-03-11T16:14:46;15.32;;;3.25;;
24857;SDS011;12935;50.782;6.074;2023-03-11T16:17:12;21.60;;;4.07;;
24857;SDS011;12935;50.782;6.074;2023-03-11T16:19:42;17.17;;;4.53;;
24857;SDS011;12935;50.782;6.074;2023-03-11T16:22:18;19.85;;;4.07;;
24857;SDS011;12935;50.782;6.074;2023-03-11T16:24:46;22.27;;;4.07;;
24857;SDS011;12935;50.782;6.074;2023-03-11T16:27:15;26.92;;;4.30;;
24857;SDS011;12935;50.782;6.074;2023-03-11T16:29:41;25.40;;;4.30;;
24857;SDS011;12935;50.782;6.074;2023-03-11T16:32:07;21.50;;;4.20;;
24857;SDS011;12935;50.782;6.074;2023-03-11T16:34:34;21.42;;;4.10;;
24857;SDS011;12935;50.782;6.074;2023-03-11T16:37:01;17.38;;;3.60;;
24857;SDS011;12935;50.782;6.074;2023-03-11T16:39:27;26.17;;;4.60;;